Terminal Aerodrome Forecast
Issued by NWS

Home | Current Version | Previous Version | Text Only | Print | Product List | Glossary Off
Versions: 1 2 3 4 5 6 7 8 9 10 11 12 13 14 15 16 17 18 19 20 21 22 23 24

029
FTUS45 KGGW 201120
TAFOLF
TAF
KOLF 201120Z 2012/2112 VRB03KT P6SM FEW160
     FM202200 15007KT P6SM FEW110
     FM210200 11005KT P6SM BKN120=

USA.gov is the U.S. government's official web portal to all federal, state and local government web resources and services.